sensor_id;sensor_type;location;lat;lon;timestamp;P1;durP1;ratioP1;P2;durP2;ratioP2
84293;SDS011;74463;51.182;3.210;2024-02-14T00:02:19;7.53;;;5.43;;
84293;SDS011;74463;51.182;3.210;2024-02-14T00:04:46;7.88;;;6.10;;
84293;SDS011;74463;51.182;3.210;2024-02-14T00:07:13;9.43;;;5.70;;
84293;SDS011;74463;51.182;3.210;2024-02-14T00:09:40;9.00;;;5.63;;
84293;SDS011;74463;51.182;3.210;2024-02-14T00:12:08;11.95;;;5.95;;
84293;SDS011;74463;51.182;3.210;2024-02-14T00:14:36;8.27;;;5.40;;
84293;SDS011;74463;51.182;3.210;2024-02-14T00:17:03;10.60;;;6.03;;
84293;SDS011;74463;51.182;3.210;2024-02-14T00:19:32;9.68;;;5.63;;
84293;SDS011;74463;51.182;3.210;2024-02-14T00:21:59;8.70;;;5.75;;
84293;SDS011;74463;51.182;3.210;2024-02-14T00:24:26;9.38;;;5.88;;
84293;SDS011;74463;51.182;3.210;2024-02-14T00:26:54;8.50;;;6.00;;
84293;SDS011;74463;51.182;3.210;2024-02-14T00:29:23;9.65;;;5.93;;
84293;SDS011;74463;51.182;3.210;2024-02-14T00:31:50;9.35;;;6.65;;
84293;SDS011;74463;51.182;3.210;2024-02-14T00:34:17;6.45;;;5.47;;
84293;SDS011;74463;51.182;3.210;2024-02-14T00:36:44;10.13;;;6.30;;
84293;SDS011;74463;51.182;3.210;2024-02-14T00:39:11;8.90;;;5.30;;
84293;SDS011;74463;51.182;3.210;2024-02-14T00:41:38;7.80;;;5.63;;
84293;SDS011;74463;51.182;3.210;2024-02-14T00:44:05;11.85;;;5.88;;
84293;SDS011;74463;51.182;3.210;2024-02-14T00:46:33;8.52;;;6.68;;
84293;SDS011;74463;51.182;3.210;2024-02-14T00:49:00;11.88;;;6.97;;
84293;SDS011;74463;51.182;3.210;2024-02-14T00:51:27;9.98;;;5.43;;
84293;SDS011;74463;51.182;3.210;2024-02-14T00:53:54;13.02;;;6.93;;
84293;SDS011;74463;51.182;3.210;2024-02-14T00:56:21;9.45;;;6.30;;
84293;SDS011;74463;51.182;3.210;2024-02-14T00:58:49;9.27;;;6.85;;
84293;SDS011;74463;51.182;3.210;2024-02-14T01:01:16;12.48;;;6.85;;
84293;SDS011;74463;51.182;3.210;2024-02-14T01:03:44;9.25;;;6.15;;
84293;SDS011;74463;51.182;3.210;2024-02-14T01:06:11;10.93;;;6.72;;
84293;SDS011;74463;51.182;3.210;2024-02-14T01:08:39;13.00;;;8.73;;
84293;SDS011;74463;51.182;3.210;2024-02-14T01:11:06;8.52;;;6.22;;
84293;SDS011;74463;51.182;3.210;2024-02-14T01:13:33;9.57;;;5.88;;
84293;SDS011;74463;51.182;3.210;2024-02-14T01:16:00;10.23;;;6.80;;
84293;SDS011;74463;51.182;3.210;2024-02-14T01:18:28;12.23;;;6.50;;
84293;SDS011;74463;51.182;3.210;2024-02-14T01:20:56;12.27;;;6.85;;
84293;SDS011;74463;51.182;3.210;2024-02-14T01:23:25;8.50;;;6.40;;
84293;SDS011;74463;51.182;3.210;2024-02-14T01:25:52;12.10;;;6.07;;
84293;SDS011;74463;51.182;3.210;2024-02-14T01:28:20;11.23;;;6.10;;
84293;SDS011;74463;51.182;3.210;2024-02-14T01:30:47;13.02;;;6.38;;
84293;SDS011;74463;51.182;3.210;2024-02-14T01:33:16;9.30;;;6.43;;
84293;SDS011;74463;51.182;3.210;2024-02-14T01:35:43;9.63;;;6.78;;
84293;SDS011;74463;51.182;3.210;2024-02-14T01:38:11;10.45;;;6.35;;
84293;SDS011;74463;51.182;3.210;2024-02-14T01:40:41;11.05;;;6.38;;
84293;SDS011;74463;51.182;3.210;2024-02-14T01:43:09;8.15;;;5.45;;
84293;SDS011;74463;51.182;3.210;2024-02-14T01:45:37;10.95;;;6.28;;
84293;SDS011;74463;51.182;3.210;2024-02-14T01:48:05;14.38;;;6.63;;
84293;SDS011;74463;51.182;3.210;2024-02-14T01:50:33;11.23;;;6.93;;
84293;SDS011;74463;51.182;3.210;2024-02-14T01:53:00;9.98;;;6.55;;
84293;SDS011;74463;51.182;3.210;2024-02-14T01:55:30;9.45;;;5.93;;
84293;SDS011;74463;51.182;3.210;2024-02-14T01:57:58;10.98;;;6.40;;
84293;SDS011;74463;51.182;3.210;2024-02-14T02:00:25;11.80;;;6.93;;
84293;SDS011;74463;51.182;3.210;2024-02-14T02:02:52;13.68;;;6.45;;
84293;SDS011;74463;51.182;3.210;2024-02-14T02:05:20;7.88;;;5.75;;
84293;SDS011;74463;51.182;3.210;2024-02-14T02:07:47;10.65;;;6.38;;
84293;SDS011;74463;51.182;3.210;2024-02-14T02:10:15;10.68;;;5.95;;
84293;SDS011;74463;51.182;3.210;2024-02-14T02:12:43;10.20;;;6.22;;
84293;SDS011;74463;51.182;3.210;2024-02-14T02:15:10;7.70;;;5.65;;
84293;SDS011;74463;51.182;3.210;2024-02-14T02:17:40;8.85;;;5.97;;
84293;SDS011;74463;51.182;3.210;2024-02-14T02:20:07;9.80;;;6.88;;
84293;SDS011;74463;51.182;3.210;2024-02-14T02:22:35;13.65;;;7.05;;
84293;SDS011;74463;51.182;3.210;2024-02-14T02:25:04;12.30;;;6.43;;
84293;SDS011;74463;51.182;3.210;2024-02-14T02:27:32;10.98;;;5.95;;
84293;SDS011;74463;51.182;3.210;2024-02-14T02:30:03;10.48;;;5.75;;
84293;SDS011;74463;51.182;3.210;2024-02-14T02:32:30;9.50;;;6.53;;
84293;SDS011;74463;51.182;3.210;2024-02-14T02:34:57;11.27;;;6.03;;
84293;SDS011;74463;51.182;3.210;2024-02-14T02:37:25;10.35;;;6.90;;
84293;SDS011;74463;51.182;3.210;2024-02-14T02:39:53;9.43;;;5.93;;
84293;SDS011;74463;51.182;3.210;2024-02-14T02:42:22;10.80;;;6.78;;
84293;SDS011;74463;51.182;3.210;2024-02-14T02:44:49;10.35;;;6.53;;
84293;SDS011;74463;51.182;3.210;2024-02-14T02:47:16;12.60;;;6.25;;
84293;SDS011;74463;51.182;3.210;2024-02-14T02:49:43;13.25;;;6.47;;
84293;SDS011;74463;51.182;3.210;2024-02-14T02:52:10;8.82;;;5.65;;
84293;SDS011;74463;51.182;3.210;2024-02-14T02:54:38;12.02;;;6.40;;
84293;SDS011;74463;51.182;3.210;2024-02-14T02:57:06;12.70;;;5.90;;
84293;SDS011;74463;51.182;3.210;2024-02-14T02:59:34;8.95;;;6.53;;
84293;SDS011;74463;51.182;3.210;2024-02-14T03:02:01;8.93;;;6.30;;
84293;SDS011;74463;51.182;3.210;2024-02-14T03:04:28;9.85;;;5.90;;
84293;SDS011;74463;51.182;3.210;2024-02-14T03:06:56;12.68;;;6.28;;
84293;SDS011;74463;51.182;3.210;2024-02-14T03:09:24;9.53;;;5.57;;
84293;SDS011;74463;51.182;3.210;2024-02-14T03:11:53;11.73;;;6.22;;
84293;SDS011;74463;51.182;3.210;2024-02-14T03:14:22;10.73;;;6.10;;
84293;SDS011;74463;51.182;3.210;2024-02-14T03:16:50;11.48;;;6.75;;
84293;SDS011;74463;51.182;3.210;2024-02-14T03:19:17;9.65;;;6.30;;
84293;SDS011;74463;51.182;3.210;2024-02-14T03:21:44;15.32;;;7.18;;
84293;SDS011;74463;51.182;3.210;2024-02-14T03:24:11;12.65;;;7.07;;
84293;SDS011;74463;51.182;3.210;2024-02-14T03:26:39;12.10;;;6.80;;
84293;SDS011;74463;51.182;3.210;2024-02-14T03:29:07;11.02;;;7.38;;
84293;SDS011;74463;51.182;3.210;2024-02-14T03:31:34;10.80;;;7.55;;
84293;SDS011;74463;51.182;3.210;2024-02-14T03:34:02;9.65;;;6.80;;
84293;SDS011;74463;51.182;3.210;2024-02-14T03:38:57;9.07;;;6.25;;
84293;SDS011;74463;51.182;3.210;2024-02-14T03:41:29;11.48;;;7.13;;
84293;SDS011;74463;51.182;3.210;2024-02-14T03:43:56;12.30;;;7.88;;
84293;SDS011;74463;51.182;3.210;2024-02-14T03:46:25;13.07;;;6.93;;
84293;SDS011;74463;51.182;3.210;2024-02-14T03:48:52;15.35;;;8.02;;
84293;SDS011;74463;51.182;3.210;2024-02-14T03:51:21;11.48;;;7.35;;
84293;SDS011;74463;51.182;3.210;2024-02-14T03:53:49;13.55;;;6.55;;
84293;SDS011;74463;51.182;3.210;2024-02-14T03:56:16;12.10;;;6.78;;
84293;SDS011;74463;51.182;3.210;2024-02-14T03:58:43;13.18;;;6.78;;
84293;SDS011;74463;51.182;3.210;2024-02-14T04:01:12;10.10;;;6.00;;
84293;SDS011;74463;51.182;3.210;2024-02-14T04:03:39;11.88;;;6.40;;
84293;SDS011;74463;51.182;3.210;2024-02-14T04:06:06;12.50;;;5.80;;
84293;SDS011;74463;51.182;3.210;2024-02-14T04:08:34;13.18;;;5.68;;
84293;SDS011;74463;51.182;3.210;2024-02-14T04:11:01;10.15;;;5.80;;
84293;SDS011;74463;51.182;3.210;2024-02-14T04:13:28;13.88;;;6.07;;
84293;SDS011;74463;51.182;3.210;2024-02-14T04:15:55;10.30;;;5.97;;
84293;SDS011;74463;51.182;3.210;2024-02-14T04:18:22;11.43;;;5.10;;
84293;SDS011;74463;51.182;3.210;2024-02-14T04:20:49;15.43;;;5.90;;
84293;SDS011;74463;51.182;3.210;2024-02-14T04:23:16;9.95;;;5.63;;
84293;SDS011;74463;51.182;3.210;2024-02-14T04:25:45;12.65;;;6.00;;
84293;SDS011;74463;51.182;3.210;2024-02-14T04:28:13;11.20;;;6.03;;
84293;SDS011;74463;51.182;3.210;2024-02-14T04:30:40;9.43;;;5.50;;
84293;SDS011;74463;51.182;3.210;2024-02-14T04:33:08;11.93;;;6.75;;
84293;SDS011;74463;51.182;3.210;2024-02-14T04:35:36;16.05;;;6.63;;
84293;SDS011;74463;51.182;3.210;2024-02-14T04:38:03;10.88;;;6.00;;
84293;SDS011;74463;51.182;3.210;2024-02-14T04:40:30;12.60;;;6.65;;
84293;SDS011;74463;51.182;3.210;2024-02-14T04:42:59;11.73;;;6.93;;
84293;SDS011;74463;51.182;3.210;2024-02-14T04:45:26;12.85;;;6.20;;
84293;SDS011;74463;51.182;3.210;2024-02-14T04:47:53;13.60;;;6.82;;
84293;SDS011;74463;51.182;3.210;2024-02-14T04:50:20;10.20;;;6.22;;
84293;SDS011;74463;51.182;3.210;2024-02-14T04:52:47;15.07;;;6.32;;
84293;SDS011;74463;51.182;3.210;2024-02-14T04:55:14;10.43;;;6.35;;
84293;SDS011;74463;51.182;3.210;2024-02-14T04:57:41;10.60;;;6.40;;
84293;SDS011;74463;51.182;3.210;2024-02-14T05:00:10;11.38;;;6.10;;
84293;SDS011;74463;51.182;3.210;2024-02-14T05:02:38;13.25;;;6.30;;
84293;SDS011;74463;51.182;3.210;2024-02-14T05:05:06;11.93;;;6.05;;
84293;SDS011;74463;51.182;3.210;2024-02-14T05:07:33;11.45;;;6.45;;
84293;SDS011;74463;51.182;3.210;2024-02-14T05:10:00;11.52;;;6.18;;
84293;SDS011;74463;51.182;3.210;2024-02-14T05:12:27;15.13;;;5.80;;
84293;SDS011;74463;51.182;3.210;2024-02-14T05:14:54;10.05;;;5.05;;
84293;SDS011;74463;51.182;3.210;2024-02-14T05:17:23;10.38;;;5.60;;
84293;SDS011;74463;51.182;3.210;2024-02-14T05:19:50;17.17;;;5.88;;
84293;SDS011;74463;51.182;3.210;2024-02-14T05:22:18;12.27;;;5.55;;
84293;SDS011;74463;51.182;3.210;2024-02-14T05:24:45;9.95;;;5.72;;
84293;SDS011;74463;51.182;3.210;2024-02-14T05:27:12;13.48;;;6.00;;
84293;SDS011;74463;51.182;3.210;2024-02-14T05:29:39;14.18;;;6.15;;
84293;SDS011;74463;51.182;3.210;2024-02-14T05:32:06;10.95;;;5.78;;
84293;SDS011;74463;51.182;3.210;2024-02-14T05:34:35;10.20;;;5.88;;
84293;SDS011;74463;51.182;3.210;2024-02-14T05:37:03;10.98;;;5.95;;
84293;SDS011;74463;51.182;3.210;2024-02-14T05:39:30;16.60;;;5.97;;
84293;SDS011;74463;51.182;3.210;2024-02-14T05:41:57;14.05;;;5.82;;
84293;SDS011;74463;51.182;3.210;2024-02-14T05:44:24;9.82;;;6.32;;
84293;SDS011;74463;51.182;3.210;2024-02-14T05:46:52;9.43;;;5.65;;
84293;SDS011;74463;51.182;3.210;2024-02-14T05:49:20;12.07;;;5.78;;
84293;SDS011;74463;51.182;3.210;2024-02-14T05:51:48;10.80;;;6.15;;
84293;SDS011;74463;51.182;3.210;2024-02-14T05:54:16;9.57;;;6.03;;
84293;SDS011;74463;51.182;3.210;2024-02-14T05:56:43;14.70;;;5.95;;
84293;SDS011;74463;51.182;3.210;2024-02-14T05:59:11;9.75;;;5.65;;
84293;SDS011;74463;51.182;3.210;2024-02-14T06:01:37;11.50;;;5.50;;
84293;SDS011;74463;51.182;3.210;2024-02-14T06:04:04;13.88;;;5.88;;
84293;SDS011;74463;51.182;3.210;2024-02-14T06:06:31;11.35;;;6.78;;
84293;SDS011;74463;51.182;3.210;2024-02-14T06:09:00;12.10;;;6.00;;
84293;SDS011;74463;51.182;3.210;2024-02-14T06:11:34;9.98;;;5.65;;
84293;SDS011;74463;51.182;3.210;2024-02-14T06:14:01;11.57;;;6.13;;
84293;SDS011;74463;51.182;3.210;2024-02-14T06:16:28;13.15;;;6.20;;
84293;SDS011;74463;51.182;3.210;2024-02-14T06:18:55;13.43;;;5.88;;
84293;SDS011;74463;51.182;3.210;2024-02-14T06:21:22;12.90;;;6.20;;
84293;SDS011;74463;51.182;3.210;2024-02-14T06:23:50;14.93;;;6.70;;
84293;SDS011;74463;51.182;3.210;2024-02-14T06:26:19;13.68;;;6.57;;
84293;SDS011;74463;51.182;3.210;2024-02-14T06:28:45;21.95;;;7.65;;
84293;SDS011;74463;51.182;3.210;2024-02-14T06:31:17;10.70;;;6.68;;
84293;SDS011;74463;51.182;3.210;2024-02-14T06:33:43;12.95;;;7.00;;
84293;SDS011;74463;51.182;3.210;2024-02-14T06:36:10;11.48;;;6.22;;
84293;SDS011;74463;51.182;3.210;2024-02-14T06:38:36;17.55;;;7.10;;
84293;SDS011;74463;51.182;3.210;2024-02-14T06:41:03;15.23;;;6.57;;
84293;SDS011;74463;51.182;3.210;2024-02-14T06:43:33;15.32;;;6.78;;
84293;SDS011;74463;51.182;3.210;2024-02-14T06:46:01;12.50;;;7.20;;
84293;SDS011;74463;51.182;3.210;2024-02-14T06:48:28;15.27;;;6.90;;
84293;SDS011;74463;51.182;3.210;2024-02-14T06:50:55;13.43;;;8.13;;
84293;SDS011;74463;51.182;3.210;2024-02-14T06:53:22;9.93;;;6.95;;
84293;SDS011;74463;51.182;3.210;2024-02-14T06:55:50;12.77;;;7.27;;
84293;SDS011;74463;51.182;3.210;2024-02-14T06:58:17;12.00;;;6.88;;
84293;SDS011;74463;51.182;3.210;2024-02-14T07:00:45;16.13;;;7.80;;
84293;SDS011;74463;51.182;3.210;2024-02-14T07:03:12;13.93;;;8.18;;
84293;SDS011;74463;51.182;3.210;2024-02-14T07:05:39;15.32;;;9.05;;
84293;SDS011;74463;51.182;3.210;2024-02-14T07:08:06;16.17;;;8.70;;
84293;SDS011;74463;51.182;3.210;2024-02-14T07:10:34;15.77;;;8.93;;
84293;SDS011;74463;51.182;3.210;2024-02-14T07:13:01;17.70;;;8.63;;
84293;SDS011;74463;51.182;3.210;2024-02-14T07:15:28;17.25;;;10.00;;
84293;SDS011;74463;51.182;3.210;2024-02-14T07:17:56;18.77;;;9.38;;
84293;SDS011;74463;51.182;3.210;2024-02-14T07:20:24;18.23;;;9.98;;
84293;SDS011;74463;51.182;3.210;2024-02-14T07:22:52;15.37;;;10.47;;
84293;SDS011;74463;51.182;3.210;2024-02-14T07:25:20;13.10;;;8.65;;
84293;SDS011;74463;51.182;3.210;2024-02-14T07:27:47;19.15;;;9.02;;
84293;SDS011;74463;51.182;3.210;2024-02-14T07:30:15;18.25;;;8.75;;
84293;SDS011;74463;51.182;3.210;2024-02-14T07:32:42;16.25;;;8.65;;
84293;SDS011;74463;51.182;3.210;2024-02-14T07:35:10;14.48;;;9.55;;
84293;SDS011;74463;51.182;3.210;2024-02-14T07:37:38;18.75;;;9.13;;
84293;SDS011;74463;51.182;3.210;2024-02-14T07:40:07;12.85;;;8.05;;
84293;SDS011;74463;51.182;3.210;2024-02-14T07:42:35;13.63;;;9.07;;
84293;SDS011;74463;51.182;3.210;2024-02-14T07:45:02;14.95;;;8.45;;
84293;SDS011;74463;51.182;3.210;2024-02-14T07:47:29;14.90;;;9.30;;
84293;SDS011;74463;51.182;3.210;2024-02-14T07:49:56;17.02;;;9.38;;
84293;SDS011;74463;51.182;3.210;2024-02-14T07:52:25;18.50;;;9.80;;
84293;SDS011;74463;51.182;3.210;2024-02-14T07:54:52;18.83;;;9.10;;
84293;SDS011;74463;51.182;3.210;2024-02-14T07:57:20;18.00;;;10.30;;
84293;SDS011;74463;51.182;3.210;2024-02-14T07:59:47;14.20;;;8.43;;
84293;SDS011;74463;51.182;3.210;2024-02-14T08:02:14;13.68;;;8.88;;
84293;SDS011;74463;51.182;3.210;2024-02-14T08:04:41;15.30;;;9.25;;
84293;SDS011;74463;51.182;3.210;2024-02-14T08:07:08;13.60;;;8.93;;
84293;SDS011;74463;51.182;3.210;2024-02-14T08:09:37;16.10;;;9.43;;
84293;SDS011;74463;51.182;3.210;2024-02-14T08:12:05;19.10;;;9.77;;
84293;SDS011;74463;51.182;3.210;2024-02-14T08:14:32;17.33;;;10.10;;
84293;SDS011;74463;51.182;3.210;2024-02-14T08:16:59;17.17;;;10.45;;
84293;SDS011;74463;51.182;3.210;2024-02-14T08:19:26;13.68;;;9.98;;
84293;SDS011;74463;51.182;3.210;2024-02-14T08:21:53;19.70;;;10.57;;
84293;SDS011;74463;51.182;3.210;2024-02-14T08:24:24;21.40;;;11.68;;
84293;SDS011;74463;51.182;3.210;2024-02-14T08:26:52;23.13;;;11.48;;
84293;SDS011;74463;51.182;3.210;2024-02-14T08:29:19;19.80;;;11.27;;
84293;SDS011;74463;51.182;3.210;2024-02-14T08:31:47;16.77;;;11.38;;
84293;SDS011;74463;51.182;3.210;2024-02-14T08:34:14;19.10;;;10.82;;
84293;SDS011;74463;51.182;3.210;2024-02-14T08:36:41;20.02;;;11.25;;
84293;SDS011;74463;51.182;3.210;2024-02-14T08:39:08;24.77;;;10.90;;
84293;SDS011;74463;51.182;3.210;2024-02-14T08:41:36;19.95;;;10.75;;
84293;SDS011;74463;51.182;3.210;2024-02-14T08:44:04;19.85;;;10.82;;
84293;SDS011;74463;51.182;3.210;2024-02-14T08:46:31;16.73;;;11.18;;
84293;SDS011;74463;51.182;3.210;2024-02-14T08:48:59;20.30;;;11.52;;
84293;SDS011;74463;51.182;3.210;2024-02-14T08:51:27;17.45;;;10.45;;
84293;SDS011;74463;51.182;3.210;2024-02-14T08:53:54;17.90;;;11.25;;
84293;SDS011;74463;51.182;3.210;2024-02-14T08:56:24;24.08;;;11.13;;
84293;SDS011;74463;51.182;3.210;2024-02-14T08:58:51;22.27;;;11.52;;
84293;SDS011;74463;51.182;3.210;2024-02-14T09:01:19;18.83;;;10.57;;
84293;SDS011;74463;51.182;3.210;2024-02-14T09:03:47;18.50;;;10.52;;
84293;SDS011;74463;51.182;3.210;2024-02-14T09:06:15;16.80;;;9.30;;
84293;SDS011;74463;51.182;3.210;2024-02-14T09:08:43;16.38;;;9.95;;
84293;SDS011;74463;51.182;3.210;2024-02-14T09:11:10;18.77;;;10.60;;
84293;SDS011;74463;51.182;3.210;2024-02-14T09:13:38;15.35;;;9.07;;
84293;SDS011;74463;51.182;3.210;2024-02-14T09:16:05;15.68;;;8.50;;
84293;SDS011;74463;51.182;3.210;2024-02-14T09:18:34;12.88;;;8.73;;
84293;SDS011;74463;51.182;3.210;2024-02-14T09:21:01;18.30;;;8.50;;
84293;SDS011;74463;51.182;3.210;2024-02-14T09:23:28;15.77;;;8.93;;
84293;SDS011;74463;51.182;3.210;2024-02-14T09:25:56;11.40;;;7.72;;
84293;SDS011;74463;51.182;3.210;2024-02-14T09:28:23;14.20;;;8.07;;
84293;SDS011;74463;51.182;3.210;2024-02-14T09:30:51;14.18;;;8.93;;
84293;SDS011;74463;51.182;3.210;2024-02-14T09:33:18;11.50;;;7.60;;
84293;SDS011;74463;51.182;3.210;2024-02-14T09:35:46;12.38;;;8.15;;
84293;SDS011;74463;51.182;3.210;2024-02-14T09:38:15;9.98;;;6.90;;
84293;SDS011;74463;51.182;3.210;2024-02-14T09:40:42;13.30;;;7.38;;
84293;SDS011;74463;51.182;3.210;2024-02-14T09:43:12;11.38;;;6.38;;
84293;SDS011;74463;51.182;3.210;2024-02-14T09:45:50;9.45;;;6.72;;
84293;SDS011;74463;51.182;3.210;2024-02-14T09:48:18;9.68;;;5.95;;
84293;SDS011;74463;51.182;3.210;2024-02-14T09:50:48;15.82;;;6.95;;
84293;SDS011;74463;51.182;3.210;2024-02-14T09:53:15;9.85;;;6.45;;
84293;SDS011;74463;51.182;3.210;2024-02-14T09:55:45;12.15;;;7.07;;
84293;SDS011;74463;51.182;3.210;2024-02-14T09:58:12;12.07;;;6.90;;
84293;SDS011;74463;51.182;3.210;2024-02-14T10:00:40;13.52;;;7.30;;
84293;SDS011;74463;51.182;3.210;2024-02-14T10:03:07;10.32;;;6.90;;
84293;SDS011;74463;51.182;3.210;2024-02-14T10:05:35;10.52;;;6.15;;
84293;SDS011;74463;51.182;3.210;2024-02-14T10:08:03;12.88;;;6.85;;
84293;SDS011;74463;51.182;3.210;2024-02-14T10:10:31;11.13;;;7.03;;
84293;SDS011;74463;51.182;3.210;2024-02-14T10:13:02;10.13;;;6.10;;
84293;SDS011;74463;51.182;3.210;2024-02-14T10:15:30;9.57;;;6.18;;
84293;SDS011;74463;51.182;3.210;2024-02-14T10:17:57;9.20;;;6.75;;
84293;SDS011;74463;51.182;3.210;2024-02-14T10:20:25;8.48;;;5.97;;
84293;SDS011;74463;51.182;3.210;2024-02-14T10:22:59;9.00;;;6.18;;
84293;SDS011;74463;51.182;3.210;2024-02-14T10:25:28;12.63;;;6.40;;
84293;SDS011;74463;51.182;3.210;2024-02-14T10:27:56;10.80;;;6.85;;
84293;SDS011;74463;51.182;3.210;2024-02-14T10:30:23;10.80;;;6.35;;
84293;SDS011;74463;51.182;3.210;2024-02-14T10:32:50;9.02;;;6.13;;
84293;SDS011;74463;51.182;3.210;2024-02-14T10:35:17;7.70;;;5.18;;
84293;SDS011;74463;51.182;3.210;2024-02-14T10:37:47;10.52;;;6.75;;
84293;SDS011;74463;51.182;3.210;2024-02-14T10:40:15;10.63;;;6.70;;
84293;SDS011;74463;51.182;3.210;2024-02-14T10:42:43;9.55;;;6.15;;
84293;SDS011;74463;51.182;3.210;2024-02-14T10:45:11;10.45;;;6.28;;
84293;SDS011;74463;51.182;3.210;2024-02-14T10:47:39;10.40;;;6.65;;
84293;SDS011;74463;51.182;3.210;2024-02-14T10:50:09;9.45;;;6.00;;
84293;SDS011;74463;51.182;3.210;2024-02-14T10:52:40;10.10;;;6.63;;
84293;SDS011;74463;51.182;3.210;2024-02-14T10:55:08;9.25;;;6.00;;
84293;SDS011;74463;51.182;3.210;2024-02-14T10:57:37;8.45;;;5.93;;
84293;SDS011;74463;51.182;3.210;2024-02-14T11:00:10;8.75;;;5.70;;
84293;SDS011;74463;51.182;3.210;2024-02-14T11:02:40;9.40;;;6.43;;
84293;SDS011;74463;51.182;3.210;2024-02-14T11:05:11;7.60;;;5.57;;
84293;SDS011;74463;51.182;3.210;2024-02-14T11:07:43;7.97;;;6.57;;
84293;SDS011;74463;51.182;3.210;2024-02-14T11:10:13;10.05;;;6.75;;
84293;SDS011;74463;51.182;3.210;2024-02-14T11:12:41;10.70;;;6.35;;
84293;SDS011;74463;51.182;3.210;2024-02-14T11:15:12;8.88;;;6.55;;
84293;SDS011;74463;51.182;3.210;2024-02-14T11:17:42;9.85;;;7.15;;
84293;SDS011;74463;51.182;3.210;2024-02-14T11:20:16;8.73;;;6.35;;
84293;SDS011;74463;51.182;3.210;2024-02-14T11:22:50;9.38;;;6.38;;
84293;SDS011;74463;51.182;3.210;2024-02-14T11:25:22;10.70;;;8.45;;
84293;SDS011;74463;51.182;3.210;2024-02-14T11:27:59;9.60;;;7.13;;
84293;SDS011;74463;51.182;3.210;2024-02-14T11:30:32;11.30;;;7.72;;
84293;SDS011;74463;51.182;3.210;2024-02-14T11:33:12;13.15;;;7.63;;
84293;SDS011;74463;51.182;3.210;2024-02-14T11:35:41;11.80;;;7.93;;
84293;SDS011;74463;51.182;3.210;2024-02-14T11:38:08;11.85;;;6.95;;
84293;SDS011;74463;51.182;3.210;2024-02-14T11:40:35;10.85;;;6.60;;
84293;SDS011;74463;51.182;3.210;2024-02-14T11:43:04;11.32;;;7.20;;
84293;SDS011;74463;51.182;3.210;2024-02-14T11:45:33;10.07;;;5.65;;
84293;SDS011;74463;51.182;3.210;2024-02-14T11:48:01;10.38;;;6.78;;
84293;SDS011;74463;51.182;3.210;2024-02-14T11:50:28;8.57;;;5.88;;
84293;SDS011;74463;51.182;3.210;2024-02-14T11:52:55;8.25;;;5.80;;
84293;SDS011;74463;51.182;3.210;2024-02-14T11:55:27;9.07;;;4.78;;
84293;SDS011;74463;51.182;3.210;2024-02-14T11:57:54;7.55;;;5.07;;
84293;SDS011;74463;51.182;3.210;2024-02-14T12:00:21;10.52;;;5.75;;
84293;SDS011;74463;51.182;3.210;2024-02-14T12:02:50;11.98;;;5.65;;
84293;SDS011;74463;51.182;3.210;2024-02-14T12:07:45;8.30;;;4.95;;
84293;SDS011;74463;51.182;3.210;2024-02-14T12:10:12;10.90;;;5.57;;
84293;SDS011;74463;51.182;3.210;2024-02-14T12:12:39;8.27;;;5.28;;
84293;SDS011;74463;51.182;3.210;2024-02-14T12:15:09;7.55;;;5.30;;
84293;SDS011;74463;51.182;3.210;2024-02-14T12:17:36;7.22;;;4.55;;
84293;SDS011;74463;51.182;3.210;2024-02-14T12:20:07;6.20;;;4.55;;
84293;SDS011;74463;51.182;3.210;2024-02-14T12:22:36;7.60;;;5.20;;
84293;SDS011;74463;51.182;3.210;2024-02-14T12:25:03;8.23;;;4.30;;
84293;SDS011;74463;51.182;3.210;2024-02-14T12:27:33;8.15;;;4.47;;
84293;SDS011;74463;51.182;3.210;2024-02-14T12:30:03;8.52;;;4.18;;
84293;SDS011;74463;51.182;3.210;2024-02-14T12:32:30;7.43;;;3.92;;
84293;SDS011;74463;51.182;3.210;2024-02-14T12:34:58;8.00;;;3.85;;
84293;SDS011;74463;51.182;3.210;2024-02-14T12:37:26;7.32;;;3.80;;
84293;SDS011;74463;51.182;3.210;2024-02-14T12:39:53;6.28;;;3.63;;
84293;SDS011;74463;51.182;3.210;2024-02-14T12:42:20;6.13;;;3.92;;
84293;SDS011;74463;51.182;3.210;2024-02-14T12:44:50;5.78;;;3.78;;
84293;SDS011;74463;51.182;3.210;2024-02-14T12:47:18;6.35;;;3.90;;
84293;SDS011;74463;51.182;3.210;2024-02-14T12:49:47;5.15;;;3.47;;
84293;SDS011;74463;51.182;3.210;2024-02-14T12:52:13;5.15;;;3.55;;
84293;SDS011;74463;51.182;3.210;2024-02-14T12:54:42;5.15;;;3.22;;
84293;SDS011;74463;51.182;3.210;2024-02-14T12:59:36;6.95;;;3.78;;
84293;SDS011;74463;51.182;3.210;2024-02-14T13:02:03;7.97;;;3.17;;
84293;SDS011;74463;51.182;3.210;2024-02-14T13:04:32;5.80;;;3.67;;
84293;SDS011;74463;51.182;3.210;2024-02-14T13:07:00;5.63;;;3.00;;
84293;SDS011;74463;51.182;3.210;2024-02-14T13:09:27;4.45;;;3.08;;
84293;SDS011;74463;51.182;3.210;2024-02-14T13:11:55;5.18;;;3.17;;
84293;SDS011;74463;51.182;3.210;2024-02-14T13:14:22;8.30;;;3.25;;
84293;SDS011;74463;51.182;3.210;2024-02-14T13:16:50;5.20;;;2.95;;
84293;SDS011;74463;51.182;3.210;2024-02-14T13:19:16;6.03;;;3.15;;
84293;SDS011;74463;51.182;3.210;2024-02-14T13:21:44;4.68;;;3.00;;
84293;SDS011;74463;51.182;3.210;2024-02-14T13:24:11;5.88;;;3.22;;
84293;SDS011;74463;51.182;3.210;2024-02-14T13:26:39;4.38;;;3.08;;
84293;SDS011;74463;51.182;3.210;2024-02-14T13:29:07;4.57;;;2.97;;
84293;SDS011;74463;51.182;3.210;2024-02-14T13:31:34;4.45;;;2.95;;
84293;SDS011;74463;51.182;3.210;2024-02-14T13:34:01;5.45;;;3.33;;
84293;SDS011;74463;51.182;3.210;2024-02-14T13:36:30;8.73;;;3.38;;
84293;SDS011;74463;51.182;3.210;2024-02-14T13:38:57;4.20;;;2.90;;
84293;SDS011;74463;51.182;3.210;2024-02-14T13:41:25;4.63;;;2.92;;
84293;SDS011;74463;51.182;3.210;2024-02-14T13:43:52;4.78;;;2.72;;
84293;SDS011;74463;51.182;3.210;2024-02-14T13:46:20;5.70;;;3.22;;
84293;SDS011;74463;51.182;3.210;2024-02-14T13:48:47;8.50;;;3.55;;
84293;SDS011;74463;51.182;3.210;2024-02-14T13:51:14;3.88;;;2.63;;
84293;SDS011;74463;51.182;3.210;2024-02-14T13:53:41;5.57;;;3.75;;
84293;SDS011;74463;51.182;3.210;2024-02-14T13:56:08;7.07;;;3.85;;
84293;SDS011;74463;51.182;3.210;2024-02-14T13:58:36;9.55;;;5.18;;
84293;SDS011;74463;51.182;3.210;2024-02-14T14:01:04;7.07;;;3.85;;
84293;SDS011;74463;51.182;3.210;2024-02-14T14:03:33;7.50;;;3.85;;
84293;SDS011;74463;51.182;3.210;2024-02-14T14:06:02;8.90;;;4.70;;
84293;SDS011;74463;51.182;3.210;2024-02-14T14:08:30;7.45;;;4.30;;
84293;SDS011;74463;51.182;3.210;2024-02-14T14:10:57;6.05;;;3.15;;
84293;SDS011;74463;51.182;3.210;2024-02-14T14:13:24;7.03;;;3.95;;
84293;SDS011;74463;51.182;3.210;2024-02-14T14:15:54;6.38;;;3.70;;
84293;SDS011;74463;51.182;3.210;2024-02-14T14:18:22;8.65;;;3.40;;
84293;SDS011;74463;51.182;3.210;2024-02-14T14:20:50;6.47;;;3.75;;
84293;SDS011;74463;51.182;3.210;2024-02-14T14:23:17;7.53;;;4.07;;
84293;SDS011;74463;51.182;3.210;2024-02-14T14:25:44;6.35;;;3.67;;
84293;SDS011;74463;51.182;3.210;2024-02-14T14:28:11;6.65;;;3.75;;
84293;SDS011;74463;51.182;3.210;2024-02-14T14:30:39;6.38;;;3.38;;
84293;SDS011;74463;51.182;3.210;2024-02-14T14:33:06;7.97;;;4.20;;
84293;SDS011;74463;51.182;3.210;2024-02-14T14:35:33;15.23;;;4.45;;
84293;SDS011;74463;51.182;3.210;2024-02-14T14:38:02;5.65;;;3.10;;
84293;SDS011;74463;51.182;3.210;2024-02-14T14:42:56;6.43;;;3.38;;
84293;SDS011;74463;51.182;3.210;2024-02-14T14:45:23;7.60;;;3.50;;
84293;SDS011;74463;51.182;3.210;2024-02-14T14:47:53;7.85;;;3.50;;
84293;SDS011;74463;51.182;3.210;2024-02-14T14:50:21;11.75;;;3.85;;
84293;SDS011;74463;51.182;3.210;2024-02-14T14:52:47;9.68;;;3.28;;